Time;durP1;ratioP1;P1;durP2;ratioP2;P2;SDS_P1;SDS_P2;PMS_P1;PMS_P2;Temp;Humidity;BMP_temperature;BMP_pressure;BME280_temperature;BME280_humidity;BME280_pressure;Samples;Min_cycle;Max_cycle;Signal;HPM_P1;HPM_P2
2022/07/28 00:00:26;;;;;;;5.78;1.73;;;10.30;99.90;;;;;;5152955;27;20104;-82
2022/07/28 00:02:52;;;;;;;2.60;1.40;;;10.20;99.90;;;;;;5126783;27;20113;-82
2022/07/28 00:05:18;;;;;;;3.22;1.27;;;10.20;99.90;;;;;;5153753;27;20072;-82
2022/07/28 00:07:44;;;;;;;4.35;1.30;;;10.20;99.90;;;;;;5136484;27;20159;-82
2022/07/28 00:10:10;;;;;;;3.83;1.42;;;10.20;99.90;;;;;;5150894;27;20456;-82
2022/07/28 00:12:36;;;;;;;2.38;1.50;;;10.20;99.90;;;;;;5144321;27;20045;-82
2022/07/28 00:15:04;;;;;;;3.15;1.55;;;10.20;99.90;;;;;;5154275;27;20477;-82
2022/07/28 00:17:30;;;;;;;5.07;1.60;;;10.20;99.90;;;;;;5153276;27;20062;-83
2022/07/28 00:19:56;;;;;;;7.50;1.55;;;10.20;99.90;;;;;;5153396;27;20454;-83
2022/07/28 00:22:21;;;;;;;1.83;1.30;;;10.20;99.90;;;;;;5134836;27;20071;-83
2022/07/28 00:24:47;;;;;;;3.22;1.67;;;10.20;99.90;;;;;;5138536;27;21385;-83
2022/07/28 00:27:15;;;;;;;1.90;1.40;;;10.20;99.90;;;;;;5153492;27;20121;-82
2022/07/28 00:29:41;;;;;;;3.28;1.33;;;10.20;99.90;;;;;;5134980;27;20400;-82
2022/07/28 00:32:07;;;;;;;5.30;1.60;;;10.20;99.90;;;;;;5135846;27;20047;-82
2022/07/28 00:34:33;;;;;;;3.95;1.40;;;10.20;99.90;;;;;;5154414;27;20096;-83
2022/07/28 00:36:59;;;;;;;8.23;1.98;;;10.20;99.90;;;;;;5136112;27;20485;-82
2022/07/28 00:39:24;;;;;;;8.73;1.85;;;10.20;99.90;;;;;;5135559;27;20072;-82
2022/07/28 00:41:50;;;;;;;2.95;1.77;;;10.20;99.90;;;;;;5129836;28;20043;-83
2022/07/28 00:44:16;;;;;;;1.45;1.27;;;10.20;99.90;;;;;;5100966;27;20075;-82
2022/07/28 00:46:42;;;;;;;2.60;1.23;;;10.20;99.90;;;;;;5154338;27;20503;-82
2022/07/28 00:49:08;;;;;;;4.82;1.60;;;10.20;99.90;;;;;;5125797;28;20054;-82
2022/07/28 00:51:34;;;;;;;2.90;1.40;;;10.20;99.90;;;;;;5133165;27;20501;-82
2022/07/28 00:54:00;;;;;;;3.15;1.55;;;10.20;99.90;;;;;;5141626;27;20047;-82
2022/07/28 00:56:26;;;;;;;6.60;1.80;;;10.20;99.90;;;;;;5123185;27;20034;-82
2022/07/28 00:58:52;;;;;;;3.10;1.52;;;10.20;99.90;;;;;;5153367;27;20039;-82
2022/07/28 01:01:19;;;;;;;4.32;1.58;;;10.20;99.90;;;;;;5138416;27;20043;-83
2022/07/28 01:03:54;;;;;;;4.72;1.95;;;10.20;99.90;;;;;;5136300;27;20047;-82
2022/07/28 01:06:20;;;;;;;3.10;1.80;;;10.20;99.90;;;;;;5137037;27;20081;-83
2022/07/28 01:08:54;;;;;;;4.38;1.80;;;10.20;99.90;;;;;;5137822;27;20078;-82
2022/07/28 01:11:58;;;;;;;2.38;1.58;;;10.10;99.90;;;;;;5156712;27;20045;-83
2022/07/28 01:14:36;;;;;;;4.07;2.08;;;10.10;99.90;;;;;;5137918;27;20051;-83
2022/07/28 01:17:17;;;;;;;2.75;1.92;;;10.10;99.90;;;;;;5158037;27;20129;-83
2022/07/28 01:20:08;;;;;;;8.93;1.58;;;10.10;99.90;;;;;;5138409;27;20405;-83
2022/07/28 01:22:44;;;;;;;4.03;1.45;;;10.10;99.90;;;;;;5127069;27;20046;-82
2022/07/28 01:25:22;;;;;;;5.15;1.90;;;10.10;99.90;;;;;;5137956;27;20043;-82
2022/07/28 01:27:48;;;;;;;5.45;1.77;;;10.10;99.90;;;;;;5154616;27;20393;-82
2022/07/28 01:30:45;;;;;;;6.57;2.30;;;10.10;99.90;;;;;;5152156;27;20039;-83
2022/07/28 01:33:28;;;;;;;1.58;1.38;;;10.20;99.90;;;;;;5141570;27;20520;-82
2022/07/28 01:36:04;;;;;;;4.30;1.20;;;10.20;99.90;;;;;;5137389;27;20055;-82
2022/07/28 01:38:33;;;;;;;1.75;1.23;;;10.20;99.90;;;;;;5138889;27;20385;-82
2022/07/28 01:41:01;;;;;;;4.43;1.80;;;10.20;99.90;;;;;;5153917;27;20078;-82
2022/07/28 01:43:32;;;;;;;8.00;1.73;;;10.20;99.90;;;;;;5144789;27;20114;-82
2022/07/28 01:45:58;;;;;;;1.83;1.08;;;10.20;99.90;;;;;;5138592;27;20142;-82
2022/07/28 01:48:26;;;;;;;4.95;2.17;;;10.20;99.90;;;;;;5150124;27;20035;-82
2022/07/28 01:50:54;;;;;;;2.53;0.98;;;10.20;99.90;;;;;;5148275;27;20099;-83
2022/07/28 01:53:24;;;;;;;4.90;1.60;;;10.10;99.90;;;;;;5138611;27;20047;-82
2022/07/28 01:55:51;;;;;;;2.30;1.40;;;10.10;99.90;;;;;;5126655;27;20479;-82
2022/07/28 01:58:20;;;;;;;2.78;1.40;;;10.10;99.90;;;;;;5153418;27;20057;-82
2022/07/28 02:00:49;;;;;;;3.85;1.60;;;10.10;99.90;;;;;;5155823;27;20031;-82
2022/07/28 02:03:17;;;;;;;3.70;1.48;;;10.10;99.90;;;;;;5138660;27;20125;-82
2022/07/28 02:05:44;;;;;;;4.07;1.17;;;10.10;99.90;;;;;;5138072;27;20046;-82
2022/07/28 02:08:12;;;;;;;4.13;2.20;;;10.10;99.90;;;;;;5148292;27;20096;-82
2022/07/28 02:10:41;;;;;;;3.75;1.65;;;10.00;99.90;;;;;;5125555;27;20046;-82
2022/07/28 02:13:09;;;;;;;2.90;1.77;;;10.00;99.90;;;;;;5136135;27;20561;-82
2022/07/28 02:15:36;;;;;;;2.35;1.20;;;10.00;99.90;;;;;;5137577;27;20050;-82
2022/07/28 02:18:03;;;;;;;3.97;1.30;;;10.00;99.90;;;;;;5120878;27;20439;-83
2022/07/28 02:20:29;;;;;;;2.67;1.50;;;9.90;99.90;;;;;;5137698;27;20479;-82
2022/07/28 02:22:57;;;;;;;7.25;2.08;;;9.90;99.90;;;;;;5153423;27;20042;-82
2022/07/28 02:25:23;;;;;;;3.60;1.23;;;9.90;99.90;;;;;;5156481;27;20401;-82
2022/07/28 02:28:04;;;;;;;4.43;1.50;;;9.90;99.90;;;;;;5127628;27;20046;-82
2022/07/28 02:30:37;;;;;;;2.83;1.35;;;9.90;99.90;;;;;;5135884;27;20050;-82
2022/07/28 02:33:11;;;;;;;2.58;1.70;;;9.90;99.90;;;;;;5116899;27;20039;-82
2022/07/28 02:35:58;;;;;;;8.30;1.33;;;9.80;99.90;;;;;;5117632;27;20110;-82
2022/07/28 02:38:30;;;;;;;4.43;1.60;;;9.80;99.90;;;;;;5141243;27;20315;-82
2022/07/28 02:41:01;;;;;;;5.78;1.60;;;9.80;99.90;;;;;;5152978;27;20043;-82
2022/07/28 02:43:29;;;;;;;4.10;1.60;;;9.70;99.90;;;;;;5137012;27;20050;-82
2022/07/28 02:45:59;;;;;;;6.85;1.50;;;9.70;99.90;;;;;;5137475;27;20138;-82
2022/07/28 02:48:28;;;;;;;3.60;1.65;;;9.70;99.90;;;;;;5137492;27;20074;-83
2022/07/28 02:50:57;;;;;;;4.00;1.58;;;9.70;99.90;;;;;;5132471;27;20047;-82
2022/07/28 02:53:24;;;;;;;3.97;1.67;;;9.70;99.90;;;;;;5154583;27;20031;-82
2022/07/28 02:55:51;;;;;;;2.70;1.40;;;9.70;99.90;;;;;;5144187;27;20443;-82
2022/07/28 02:58:20;;;;;;;1.70;1.50;;;9.70;99.90;;;;;;5128339;27;20035;-82
2022/07/28 03:00:51;;;;;;;4.32;1.40;;;9.70;99.90;;;;;;5124989;27;20087;-82
2022/07/28 03:03:18;;;;;;;2.10;1.23;;;9.70;99.90;;;;;;5138006;27;20042;-82
2022/07/28 03:05:44;;;;;;;4.15;1.42;;;9.70;99.90;;;;;;5136363;27;20056;-82
2022/07/28 03:08:11;;;;;;;5.05;1.55;;;9.60;99.90;;;;;;5155057;27;20030;-82
2022/07/28 03:10:36;;;;;;;3.05;1.30;;;9.60;99.90;;;;;;5153343;27;20046;-82
2022/07/28 03:13:05;;;;;;;2.28;1.05;;;9.60;99.90;;;;;;5139351;27;20106;-82
2022/07/28 03:15:32;;;;;;;5.40;1.20;;;9.60;99.90;;;;;;5153282;27;20039;-82
2022/07/28 03:17:59;;;;;;;3.47;1.00;;;9.60;99.90;;;;;;5130185;27;20047;-82
2022/07/28 03:20:25;;;;;;;6.28;1.60;;;9.60;99.90;;;;;;5132634;27;20053;-82
2022/07/28 03:22:51;;;;;;;3.22;2.00;;;9.60;99.90;;;;;;5132787;27;20114;-82
2022/07/28 03:25:37;;;;;;;4.47;1.30;;;9.60;99.90;;;;;;5132612;27;20042;-82
2022/07/28 03:28:06;;;;;;;2.97;1.40;;;9.50;99.90;;;;;;5115564;27;20055;-82
2022/07/28 03:30:39;;;;;;;3.55;1.58;;;9.50;99.90;;;;;;5132456;27;20092;-82
2022/07/28 03:33:05;;;;;;;0.77;0.70;;;9.50;99.90;;;;;;5131628;27;20031;-82
2022/07/28 03:35:32;;;;;;;3.53;1.00;;;9.50;99.90;;;;;;5134652;27;20035;-82
2022/07/28 03:38:07;;;;;;;2.15;0.90;;;9.40;99.90;;;;;;5134323;27;20043;-82
2022/07/28 03:40:34;;;;;;;2.15;1.23;;;9.40;99.90;;;;;;5124168;27;20047;-82
2022/07/28 03:43:07;;;;;;;3.38;1.00;;;9.50;99.90;;;;;;5122563;27;20027;-82
2022/07/28 03:45:33;;;;;;;2.38;0.95;;;9.50;99.90;;;;;;5125739;27;20071;-82
2022/07/28 03:48:00;;;;;;;2.13;1.02;;;9.50;99.90;;;;;;5119252;27;20379;-82
2022/07/28 03:50:31;;;;;;;1.67;1.05;;;9.50;99.90;;;;;;5123904;27;20056;-82
2022/07/28 03:52:59;;;;;;;4.50;0.95;;;9.50;99.90;;;;;;5115449;27;20052;-82
2022/07/28 03:55:25;;;;;;;6.35;1.10;;;9.50;99.90;;;;;;5133215;27;20116;-82
2022/07/28 03:57:51;;;;;;;2.58;0.90;;;9.60;99.90;;;;;;5134076;27;20043;-82
2022/07/28 04:00:18;;;;;;;3.50;0.90;;;9.60;99.90;;;;;;5118937;27;20039;-82
2022/07/28 04:02:45;;;;;;;3.97;1.13;;;9.70;99.90;;;;;;5128812;27;20046;-82
2022/07/28 04:05:15;;;;;;;1.95;1.00;;;9.60;99.90;;;;;;5130448;27;20055;-82
2022/07/28 04:07:42;;;;;;;5.18;1.35;;;9.60;99.90;;;;;;5133050;27;20039;-82
2022/07/28 04:10:12;;;;;;;5.22;1.10;;;9.70;99.90;;;;;;5131924;27;20131;-82
2022/07/28 04:12:50;;;;;;;2.47;1.02;;;9.70;99.90;;;;;;5133113;27;20043;-82
2022/07/28 04:15:16;;;;;;;3.00;1.17;;;9.70;99.90;;;;;;5119269;27;20051;-82
2022/07/28 04:17:42;;;;;;;1.73;1.00;;;9.70;99.90;;;;;;5132042;27;20053;-82
2022/07/28 04:20:09;;;;;;;3.00;0.98;;;9.80;99.90;;;;;;5131671;27;20039;-82
2022/07/28 04:22:35;;;;;;;2.75;1.15;;;9.80;99.90;;;;;;5129140;27;20061;-82
2022/07/28 04:25:01;;;;;;;3.55;1.20;;;9.90;99.90;;;;;;5120450;27;20483;-82
2022/07/28 04:27:27;;;;;;;6.00;1.02;;;9.90;99.90;;;;;;5133325;27;20409;-82
2022/07/28 04:29:53;;;;;;;1.63;1.00;;;9.90;99.90;;;;;;5131403;28;20118;-82
2022/07/28 04:32:19;;;;;;;2.33;1.20;;;10.00;99.90;;;;;;5131452;28;20043;-82
2022/07/28 04:34:44;;;;;;;1.65;0.90;;;10.00;99.90;;;;;;5131825;28;20066;-82
2022/07/28 04:37:11;;;;;;;3.65;1.80;;;10.00;99.90;;;;;;5113921;28;20037;-82
2022/07/28 04:39:37;;;;;;;3.67;1.25;;;10.10;99.90;;;;;;5132705;27;20058;-82
2022/07/28 04:42:03;;;;;;;1.63;1.08;;;10.10;99.90;;;;;;5119567;27;20437;-82
2022/07/28 04:44:29;;;;;;;1.50;0.82;;;10.10;99.90;;;;;;5130622;27;20055;-82
2022/07/28 04:46:54;;;;;;;5.32;1.27;;;10.10;99.90;;;;;;5123734;27;20095;-82
2022/07/28 04:49:20;;;;;;;1.88;1.40;;;10.10;99.90;;;;;;5137632;27;20047;-83
2022/07/28 04:51:49;;;;;;;2.95;1.15;;;10.20;99.90;;;;;;5135351;27;20546;-82
2022/07/28 04:54:16;;;;;;;3.88;1.00;;;10.10;99.90;;;;;;5127105;27;20122;-82
2022/07/28 04:56:42;;;;;;;2.35;1.30;;;10.20;99.90;;;;;;5133388;27;20553;-82
2022/07/28 04:59:08;;;;;;;4.03;1.17;;;10.30;99.90;;;;;;5136110;27;20085;-82
2022/07/28 05:01:37;;;;;;;5.50;1.15;;;10.40;99.90;;;;;;5132599;27;20395;-82
2022/07/28 05:04:04;;;;;;;2.25;1.13;;;10.40;99.90;;;;;;5115144;27;20048;-82
2022/07/28 05:06:30;;;;;;;4.20;1.30;;;10.50;99.90;;;;;;5120315;27;20107;-82
2022/07/28 05:08:56;;;;;;;4.30;0.95;;;10.60;99.90;;;;;;5136364;27;20118;-82
2022/07/28 05:11:22;;;;;;;4.75;1.10;;;10.70;99.90;;;;;;5123317;27;20496;-82
2022/07/28 05:13:47;;;;;;;1.63;1.20;;;10.90;99.90;;;;;;5132037;27;20096;-83
2022/07/28 05:16:13;;;;;;;3.05;1.40;;;10.90;99.90;;;;;;5120707;27;20047;-83
2022/07/28 05:18:39;;;;;;;2.72;1.38;;;11.10;99.90;;;;;;5147593;27;20094;-83
2022/07/28 05:21:05;;;;;;;2.53;1.00;;;11.20;99.90;;;;;;5158725;27;20046;-84
2022/07/28 05:23:30;;;;;;;3.42;1.30;;;11.30;99.90;;;;;;5145383;27;20041;-83
2022/07/28 05:25:56;;;;;;;4.85;1.40;;;11.40;99.90;;;;;;5137205;27;20043;-83
2022/07/28 05:28:22;;;;;;;2.67;1.70;;;11.40;99.90;;;;;;5121437;27;20035;-83
2022/07/28 05:30:48;;;;;;;3.58;1.73;;;11.50;99.90;;;;;;5119307;27;20489;-83
2022/07/28 05:33:14;;;;;;;3.17;1.65;;;11.50;99.90;;;;;;5145110;27;20049;-83
2022/07/28 05:35:40;;;;;;;5.55;1.55;;;11.50;99.90;;;;;;5158435;27;20393;-83
2022/07/28 05:38:06;;;;;;;3.85;1.63;;;11.50;99.90;;;;;;5139012;27;20039;-83
2022/07/28 05:40:32;;;;;;;4.38;1.95;;;11.60;99.90;;;;;;5138470;27;20489;-84
2022/07/28 05:42:58;;;;;;;3.88;1.45;;;11.70;99.90;;;;;;5155099;27;20034;-83
2022/07/28 05:45:23;;;;;;;2.92;1.20;;;11.70;99.90;;;;;;5141356;27;20035;-83
2022/07/28 05:47:51;;;;;;;3.85;1.60;;;11.80;99.90;;;;;;5130993;27;20047;-81
2022/07/28 05:50:19;;;;;;;4.57;1.40;;;12.00;99.90;;;;;;5118778;27;20046;-82
2022/07/28 05:52:47;;;;;;;4.32;1.70;;;12.10;99.90;;;;;;5126858;27;20076;-82
2022/07/28 05:55:13;;;;;;;5.72;1.52;;;12.30;99.90;;;;;;5123918;27;20110;-82
2022/07/28 05:57:40;;;;;;;4.55;1.63;;;12.40;99.90;;;;;;5137266;27;20053;-82
2022/07/28 06:00:16;;;;;;;4.70;1.65;;;12.50;99.90;;;;;;5121543;27;20051;-82
2022/07/28 06:02:47;;;;;;;3.40;1.40;;;12.70;99.90;;;;;;5138048;27;20054;-83
2022/07/28 06:05:16;;;;;;;4.05;1.67;;;12.90;99.90;;;;;;5157910;27;20123;-82
2022/07/28 06:07:43;;;;;;;6.90;2.05;;;13.10;99.90;;;;;;5138244;27;20076;-83
2022/07/28 06:10:09;;;;;;;2.42;1.20;;;13.30;99.90;;;;;;5118498;27;20112;-83
2022/07/28 06:12:49;;;;;;;3.13;1.30;;;13.40;99.90;;;;;;5153643;27;20126;-83
2022/07/28 06:15:24;;;;;;;2.30;1.17;;;13.50;99.90;;;;;;5138432;27;20042;-83
2022/07/28 06:17:52;;;;;;;1.83;1.10;;;13.70;99.90;;;;;;5140435;27;20059;-83
2022/07/28 06:20:19;;;;;;;4.60;1.10;;;13.80;99.90;;;;;;5120547;27;20099;-83
2022/07/28 06:22:49;;;;;;;4.55;1.02;;;13.90;99.90;;;;;;5136218;27;20381;-84
2022/07/28 06:25:20;;;;;;;5.78;1.40;;;14.00;99.90;;;;;;5139732;27;20061;-84
2022/07/28 06:27:48;;;;;;;2.35;0.80;;;14.10;99.90;;;;;;5136735;27;20039;-83
2022/07/28 06:30:15;;;;;;;7.70;1.30;;;14.30;99.90;;;;;;5119896;27;20461;-83
2022/07/28 06:32:41;;;;;;;5.60;1.35;;;14.30;99.90;;;;;;5139088;27;20046;-84
2022/07/28 06:35:07;;;;;;;3.30;1.20;;;14.50;99.90;;;;;;5136851;27;20046;-85
2022/07/28 06:37:33;;;;;;;3.63;1.17;;;14.60;99.90;;;;;;5138151;27;20043;-84
2022/07/28 06:39:59;;;;;;;4.65;0.90;;;14.80;99.90;;;;;;5136422;27;20047;-83
2022/07/28 06:42:25;;;;;;;2.78;1.15;;;14.90;99.90;;;;;;5155478;27;20388;-83
2022/07/28 06:44:51;;;;;;;3.88;1.05;;;15.00;99.90;;;;;;5156958;27;20045;-83
2022/07/28 06:47:18;;;;;;;5.20;0.95;;;15.10;99.90;;;;;;5123120;27;20043;-82
2022/07/28 06:49:44;;;;;;;5.22;1.13;;;15.20;99.90;;;;;;5116632;27;20043;-83
2022/07/28 06:52:10;;;;;;;1.75;0.70;;;15.40;99.90;;;;;;5152357;27;20045;-83
2022/07/28 06:54:36;;;;;;;6.10;0.80;;;15.40;99.90;;;;;;5136861;27;20117;-83
2022/07/28 06:57:02;;;;;;;6.75;0.88;;;15.50;99.90;;;;;;5142531;27;20489;-83
2022/07/28 06:59:29;;;;;;;7.45;0.90;;;15.60;99.90;;;;;;5136695;27;20554;-84
2022/07/28 07:02:00;;;;;;;4.95;1.20;;;15.60;99.90;;;;;;5138172;27;20072;-84
2022/07/28 07:04:29;;;;;;;3.55;0.63;;;15.70;99.90;;;;;;5129223;27;20432;-84
2022/07/28 07:06:55;;;;;;;3.53;0.85;;;15.70;99.90;;;;;;5117566;27;20043;-83
2022/07/28 07:09:20;;;;;;;2.45;0.70;;;15.80;99.90;;;;;;5124124;27;20126;-84
2022/07/28 07:11:46;;;;;;;3.75;0.60;;;15.90;99.90;;;;;;5146834;27;20481;-84
2022/07/28 07:14:12;;;;;;;3.00;0.80;;;16.00;99.90;;;;;;5117087;27;20043;-85
2022/07/28 07:16:38;;;;;;;5.70;1.10;;;16.10;99.90;;;;;;5141037;27;20091;-86
2022/07/28 07:19:03;;;;;;;5.65;0.95;;;16.20;99.90;;;;;;5132392;27;20055;-85
2022/07/28 07:21:29;;;;;;;5.88;0.82;;;16.20;99.90;;;;;;5135560;27;20039;-85
2022/07/28 07:23:55;;;;;;;3.85;0.88;;;16.30;99.90;;;;;;5120315;27;20084;-85
2022/07/28 07:26:21;;;;;;;3.55;0.70;;;16.30;99.90;;;;;;5114297;27;20050;-85
2022/07/28 07:28:47;;;;;;;1.10;0.85;;;16.30;99.90;;;;;;5110657;27;20110;-84
2022/07/28 07:31:12;;;;;;;3.65;1.00;;;16.40;99.90;;;;;;5131479;27;20039;-85
2022/07/28 07:33:38;;;;;;;5.10;1.13;;;16.40;99.90;;;;;;5117833;27;20046;-83
2022/07/28 07:36:04;;;;;;;6.28;1.98;;;16.40;99.90;;;;;;5113739;28;20080;-84
2022/07/28 07:38:30;;;;;;;3.15;0.93;;;16.40;99.90;;;;;;5124184;27;20047;-85
2022/07/28 07:40:56;;;;;;;2.42;0.90;;;16.50;99.90;;;;;;5121421;27;20035;-86
2022/07/28 07:43:22;;;;;;;3.88;0.77;;;16.50;99.90;;;;;;5132894;27;20039;-84
2022/07/28 07:45:47;;;;;;;4.38;0.82;;;16.50;99.90;;;;;;5127396;27;20043;-83
2022/07/28 07:48:13;;;;;;;6.85;1.02;;;16.60;99.90;;;;;;5123178;27;20068;-84
2022/07/28 07:50:39;;;;;;;5.25;0.90;;;16.50;99.90;;;;;;5125611;27;20051;-85
2022/07/28 07:53:05;;;;;;;1.80;0.65;;;16.50;99.90;;;;;;5115522;27;20063;-85
2022/07/28 07:55:30;;;;;;;4.88;0.90;;;16.50;99.90;;;;;;5117718;27;20079;-84
2022/07/28 07:57:57;;;;;;;2.30;0.70;;;16.50;99.90;;;;;;5130381;27;20040;-85
2022/07/28 08:00:22;;;;;;;6.63;0.95;;;16.40;99.90;;;;;;5131608;27;20043;-85
2022/07/28 08:02:48;;;;;;;2.78;0.55;;;16.40;99.90;;;;;;5114781;28;20040;-85
2022/07/28 08:05:16;;;;;;;9.75;1.75;;;16.40;99.90;;;;;;5127805;27;20090;-84
2022/07/28 08:07:42;;;;;;;3.88;1.10;;;16.30;99.90;;;;;;5130958;27;20115;-84
2022/07/28 08:10:08;;;;;;;2.33;0.70;;;16.30;99.90;;;;;;5133481;27;20043;-85
2022/07/28 08:12:34;;;;;;;4.00;0.70;;;16.30;99.90;;;;;;5133199;27;20390;-85
2022/07/28 08:15:00;;;;;;;6.82;1.17;;;16.20;99.90;;;;;;5115132;27;20043;-84
2022/07/28 08:17:26;;;;;;;2.95;0.70;;;16.20;99.90;;;;;;5137486;27;20401;-84
2022/07/28 08:19:52;;;;;;;2.92;0.70;;;16.10;99.90;;;;;;5155396;27;20051;-85
2022/07/28 08:22:18;;;;;;;1.27;0.70;;;16.10;99.90;;;;;;5133825;27;20043;-85
2022/07/28 08:24:44;;;;;;;2.38;0.68;;;16.20;99.90;;;;;;5134734;27;20107;-84
2022/07/28 08:27:10;;;;;;;2.22;0.88;;;16.20;99.90;;;;;;5115794;27;20040;-85
2022/07/28 08:29:35;;;;;;;2.92;0.75;;;16.10;99.90;;;;;;5135010;27;20094;-85
2022/07/28 08:32:02;;;;;;;4.90;0.93;;;16.10;99.90;;;;;;5136699;27;20042;-84
2022/07/28 08:34:29;;;;;;;1.85;0.47;;;16.10;99.90;;;;;;5153338;27;20031;-84
2022/07/28 08:36:55;;;;;;;3.45;0.85;;;16.10;99.90;;;;;;5136869;27;20051;-84
2022/07/28 08:39:21;;;;;;;2.65;0.73;;;16.10;99.90;;;;;;5119375;28;20475;-83
2022/07/28 08:42:10;;;;;;;3.28;0.50;;;16.20;99.90;;;;;;5115354;28;20039;-86
2022/07/28 08:44:57;;;;;;;2.22;0.40;;;16.20;99.90;;;;;;5131475;27;20053;-84
2022/07/28 08:47:26;;;;;;;5.57;0.70;;;16.10;99.90;;;;;;5115966;28;20043;-84
2022/07/28 08:49:54;;;;;;;2.33;0.63;;;16.10;99.90;;;;;;5133647;28;20043;-84
2022/07/28 08:52:21;;;;;;;2.80;0.70;;;16.10;99.90;;;;;;5142196;27;20031;-84
2022/07/28 08:54:49;;;;;;;3.47;0.68;;;16.10;99.90;;;;;;5155065;27;20047;-83
2022/07/28 08:57:35;;;;;;;1.80;0.77;;;16.20;99.90;;;;;;5153121;27;20051;-84
2022/07/28 09:00:02;;;;;;;7.82;0.68;;;16.20;99.90;;;;;;5154986;27;20047;-82
2022/07/28 09:02:30;;;;;;;2.90;0.52;;;16.30;99.90;;;;;;5134941;27;20042;-83
2022/07/28 09:04:58;;;;;;;3.25;0.90;;;16.40;99.90;;;;;;5154090;27;20050;-83
2022/07/28 09:07:25;;;;;;;5.30;0.93;;;16.40;99.90;;;;;;5147754;27;20110;-82
2022/07/28 09:09:51;;;;;;;3.95;0.75;;;16.50;99.90;;;;;;5121911;27;20077;-82
2022/07/28 09:12:18;;;;;;;6.43;0.80;;;16.50;99.90;;;;;;5135263;27;20059;-82
2022/07/28 09:14:44;;;;;;;5.95;0.80;;;16.70;99.90;;;;;;5136397;27;20047;-82
2022/07/28 09:17:10;;;;;;;1.27;0.50;;;16.80;99.90;;;;;;5152399;27;20039;-83
2022/07/28 09:19:36;;;;;;;2.92;0.70;;;16.90;99.90;;;;;;5153560;27;20569;-82
2022/07/28 09:22:03;;;;;;;2.63;0.80;;;17.00;99.90;;;;;;5153937;27;20031;-82
2022/07/28 09:24:39;;;;;;;4.28;0.90;;;17.10;99.90;;;;;;5153943;27;20050;-82
2022/07/28 09:27:10;;;;;;;0.75;0.60;;;17.20;99.90;;;;;;5154783;27;20039;-83
2022/07/28 09:29:39;;;;;;;4.13;1.02;;;17.30;99.90;;;;;;5139970;27;20115;-83
2022/07/28 09:32:05;;;;;;;3.10;0.80;;;17.30;99.90;;;;;;5136496;27;20034;-84
2022/07/28 09:34:45;;;;;;;2.58;0.93;;;17.40;99.90;;;;;;5144544;27;20039;-83
2022/07/28 09:37:26;;;;;;;3.92;0.90;;;17.50;99.90;;;;;;5157353;27;20389;-83
2022/07/28 09:39:53;;;;;;;8.13;1.00;;;17.70;99.90;;;;;;5157596;27;20167;-83
2022/07/28 09:42:20;;;;;;;3.83;0.90;;;17.70;99.90;;;;;;5155715;27;20087;-86
2022/07/28 09:45:06;;;;;;;3.95;0.70;;;17.80;99.90;;;;;;5139332;27;20038;-85
2022/07/28 09:47:33;;;;;;;4.50;0.82;;;17.90;99.90;;;;;;5129524;27;20051;-83
2022/07/28 09:50:00;;;;;;;2.58;0.90;;;17.90;99.90;;;;;;5137313;27;20043;-83
2022/07/28 09:52:30;;;;;;;5.38;1.10;;;17.90;99.90;;;;;;5124110;27;20042;-81
2022/07/28 09:55:07;;;;;;;3.30;0.60;;;18.00;99.90;;;;;;5139790;27;20054;-83
2022/07/28 09:57:35;;;;;;;6.20;0.90;;;18.00;99.90;;;;;;5101851;27;20414;-87
2022/07/28 10:00:05;;;;;;;5.53;1.05;;;18.00;99.90;;;;;;5147641;27;20035;-84
2022/07/28 10:02:31;;;;;;;1.27;0.65;;;18.10;99.90;;;;;;5158089;27;20386;-82
2022/07/28 10:05:01;;;;;;;1.95;1.17;;;18.10;99.90;;;;;;5137111;27;20039;-83
2022/07/28 10:07:28;;;;;;;1.95;0.70;;;18.10;99.90;;;;;;5156600;27;20057;-83
2022/07/28 10:10:06;;;;;;;2.88;0.63;;;18.10;99.90;;;;;;5138207;27;20052;-84
2022/07/28 10:12:36;;;;;;;1.23;0.63;;;18.20;99.90;;;;;;5139294;27;20443;-85
2022/07/28 10:18:02;;;;;;;3.50;1.08;;;18.20;99.90;;;;;;5137427;27;20124;-87
2022/07/28 10:20:31;;;;;;;2.25;0.77;;;18.20;99.90;;;;;;5117912;27;20504;-86
2022/07/28 10:23:10;;;;;;;5.20;1.00;;;18.20;99.90;;;;;;5142570;27;20050;-85
2022/07/28 10:25:39;;;;;;;2.22;0.82;;;18.10;99.90;;;;;;5137474;27;20478;-84
2022/07/28 10:28:05;;;;;;;2.20;0.80;;;18.10;99.90;;;;;;5135398;27;20134;-84
2022/07/28 10:30:39;;;;;;;1.65;0.50;;;18.10;99.90;;;;;;5152886;27;20047;-83
2022/07/28 10:33:13;;;;;;;2.08;0.63;;;18.10;99.90;;;;;;5153917;27;20035;-84
2022/07/28 10:35:39;;;;;;;2.20;0.50;;;18.10;99.90;;;;;;5155470;27;20410;-82
2022/07/28 10:38:15;;;;;;;1.63;0.82;;;18.10;99.90;;;;;;5133400;27;20069;-85
2022/07/28 10:40:45;;;;;;;2.70;0.70;;;18.20;99.90;;;;;;5131237;27;20043;-82
2022/07/28 10:43:12;;;;;;;3.97;0.80;;;18.20;99.90;;;;;;5155280;27;20053;-82
2022/07/28 10:45:38;;;;;;;2.03;0.50;;;18.30;99.90;;;;;;5123154;27;20054;-85
2022/07/28 10:48:05;;;;;;;5.68;1.30;;;18.30;99.90;;;;;;5152744;27;20431;-84
2022/07/28 10:50:35;;;;;;;1.33;0.60;;;18.30;99.90;;;;;;5152965;27;20039;-85
2022/07/28 10:53:02;;;;;;;3.00;0.98;;;18.40;99.90;;;;;;5152249;27;20096;-83
2022/07/28 10:55:46;;;;;;;6.72;0.68;;;18.40;99.90;;;;;;5135917;27;20046;-83
2022/07/28 10:58:18;;;;;;;2.17;0.90;;;18.50;99.90;;;;;;5136090;27;20046;-83
2022/07/28 11:00:51;;;;;;;1.35;0.55;;;18.50;99.90;;;;;;5138257;27;20489;-84
2022/07/28 11:03:38;;;;;;;1.65;1.05;;;18.60;99.70;;;;;;5137266;27;20039;-85
2022/07/28 11:06:34;;;;;;;3.00;0.90;;;18.70;99.00;;;;;;5136766;27;20047;-84
2022/07/28 11:09:21;;;;;;;3.15;0.90;;;18.70;98.10;;;;;;5119750;27;20091;-86
2022/07/28 11:11:50;;;;;;;5.43;0.75;;;18.70;99.80;;;;;;5155206;27;20069;-88
2022/07/28 11:14:25;;;;;;;2.25;0.77;;;18.80;98.80;;;;;;5155151;27;20075;-86
2022/07/28 11:17:00;;;;;;;3.17;0.80;;;18.70;98.60;;;;;;5135959;27;20485;-82
2022/07/28 11:19:30;;;;;;;3.00;0.70;;;18.80;99.20;;;;;;5135233;27;20121;-82
2022/07/28 11:22:14;;;;;;;2.90;0.60;;;18.90;99.50;;;;;;5156282;27;20074;-84
2022/07/28 11:25:01;;;;;;;1.73;1.07;;;18.90;99.50;;;;;;5126122;27;20058;-81
2022/07/28 11:27:39;;;;;;;1.45;0.60;;;18.90;99.20;;;;;;5136972;27;20047;-84
2022/07/28 11:30:27;;;;;;;4.05;0.93;;;18.90;99.40;;;;;;5124110;27;20074;-82
2022/07/28 11:32:57;;;;;;;1.77;0.70;;;18.90;98.30;;;;;;5121057;27;20043;-85
2022/07/28 11:35:50;;;;;;;1.77;0.60;;;18.90;98.00;;;;;;5155001;27;20045;-82
2022/07/28 11:38:16;;;;;;;2.80;0.75;;;18.90;97.40;;;;;;5134457;27;20059;-82
2022/07/28 11:40:47;;;;;;;2.72;0.73;;;19.00;98.20;;;;;;5119280;27;20038;-83
2022/07/28 11:43:22;;;;;;;2.13;0.60;;;19.10;97.10;;;;;;5153019;27;20043;-85
2022/07/28 11:46:00;;;;;;;4.18;0.80;;;19.10;97.90;;;;;;5150898;27;20070;-81
2022/07/28 11:48:27;;;;;;;1.77;0.60;;;19.00;97.50;;;;;;5153286;27;20038;-88
2022/07/28 11:51:02;;;;;;;4.18;0.70;;;18.90;98.60;;;;;;5126277;27;20051;-85
2022/07/28 11:53:35;;;;;;;2.45;0.63;;;18.80;98.20;;;;;;5139937;27;20043;-83
2022/07/28 11:56:02;;;;;;;2.95;0.70;;;18.70;98.40;;;;;;5136599;27;20076;-87
2022/07/28 11:58:28;;;;;;;2.72;0.88;;;18.60;99.20;;;;;;5154688;27;20038;-83
2022/07/28 12:01:13;;;;;;;2.00;0.75;;;18.60;98.20;;;;;;5149592;27;20045;-88
2022/07/28 12:03:41;;;;;;;3.22;0.75;;;18.60;97.70;;;;;;5134115;27;20451;-87
2022/07/28 12:06:13;;;;;;;2.55;0.80;;;18.60;98.20;;;;;;5127444;27;20103;-81
2022/07/28 12:08:56;;;;;;;5.78;1.65;;;18.60;98.50;;;;;;5133486;27;20050;-83
2022/07/28 12:11:23;;;;;;;2.58;0.88;;;18.70;98.70;;;;;;5154639;27;20053;-82
2022/07/28 12:14:05;;;;;;;5.03;0.80;;;18.70;98.70;;;;;;5150477;27;20133;-82
2022/07/28 12:16:33;;;;;;;4.78;0.88;;;18.70;98.20;;;;;;5146569;27;20472;-82
2022/07/28 12:19:00;;;;;;;6.38;0.90;;;18.60;98.10;;;;;;5132927;27;20113;-81
2022/07/28 12:21:41;;;;;;;2.42;0.70;;;18.60;97.90;;;;;;5153811;27;20447;-84
2022/07/28 12:24:12;;;;;;;3.00;0.80;;;18.60;97.40;;;;;;5150792;27;20107;-79
2022/07/28 12:26:40;;;;;;;2.78;0.82;;;18.60;97.60;;;;;;5153019;27;20485;-82
2022/07/28 12:29:09;;;;;;;3.25;0.60;;;18.60;98.00;;;;;;5117195;28;20043;-80
2022/07/28 12:31:36;;;;;;;2.22;0.73;;;18.70;98.20;;;;;;5130754;27;20096;-81
2022/07/28 12:34:08;;;;;;;2.70;0.88;;;18.70;98.40;;;;;;5136159;27;20118;-79
2022/07/28 12:36:38;;;;;;;1.23;0.80;;;18.80;98.90;;;;;;5155163;27;20053;-80
2022/07/28 12:39:06;;;;;;;3.15;0.63;;;18.70;98.70;;;;;;5155224;27;20125;-80
2022/07/28 12:41:37;;;;;;;1.45;0.65;;;18.70;99.00;;;;;;5154324;27;20039;-81
2022/07/28 12:44:07;;;;;;;13.20;1.63;;;18.60;98.70;;;;;;5136740;27;20047;-79
2022/07/28 12:46:32;;;;;;;5.30;0.75;;;18.60;98.80;;;;;;5155002;27;20102;-80
2022/07/28 12:49:00;;;;;;;3.08;0.63;;;18.60;98.80;;;;;;5135765;27;20184;-80
2022/07/28 12:51:37;;;;;;;4.43;1.02;;;18.60;98.40;;;;;;5136594;27;20047;-81
2022/07/28 12:54:05;;;;;;;3.95;0.63;;;18.60;98.80;;;;;;5119599;27;20046;-80
2022/07/28 12:56:44;;;;;;;2.65;0.70;;;18.80;99.00;;;;;;5135400;27;20043;-80
2022/07/28 12:59:12;;;;;;;2.75;0.88;;;18.90;98.20;;;;;;5155106;27;20050;-80
2022/07/28 13:01:50;;;;;;;2.08;0.70;;;18.80;98.50;;;;;;5157415;27;20103;-81